Time;durP1;ratioP1;P1;durP2;ratioP2;P2;SDS_P1;SDS_P2;PMS_P1;PMS_P2;Temp;Humidity;BMP_temperature;BMP_pressure;BME280_temperature;BME280_humidity;BME280_pressure;Samples;Min_cycle;Max_cycle;Signal;HPM_P1;HPM_P2
2023/06/02 00:01:24;;;;;;;19.58;4.30;;;11.10;99.90;;;;;;5057091;28;20122;-62
2023/06/02 00:03:53;;;;;;;16.25;3.65;;;11.10;99.90;;;;;;5075363;28;20051;-62
2023/06/02 00:06:20;;;;;;;9.88;2.85;;;11.10;99.90;;;;;;5057056;28;20500;-63
2023/06/02 00:08:47;;;;;;;21.75;3.28;;;11.10;99.90;;;;;;5057006;28;20056;-62
2023/06/02 00:11:15;;;;;;;10.82;3.25;;;11.10;99.90;;;;;;5057238;28;20519;-62
2023/06/02 00:13:43;;;;;;;14.05;3.60;;;11.00;99.90;;;;;;5056872;28;20461;-61
2023/06/02 00:16:10;;;;;;;9.65;2.53;;;11.00;99.90;;;;;;5075427;28;20045;-62
2023/06/02 00:18:37;;;;;;;14.48;2.97;;;11.00;99.90;;;;;;5057521;28;20121;-62
2023/06/02 00:21:05;;;;;;;15.30;3.25;;;11.00;99.90;;;;;;5056752;28;20060;-62
2023/06/02 00:23:32;;;;;;;13.50;3.22;;;11.00;99.90;;;;;;5074852;28;20490;-62
2023/06/02 00:26:00;;;;;;;14.80;3.80;;;11.00;99.90;;;;;;5074803;28;20288;-61
2023/06/02 00:28:29;;;;;;;8.55;3.92;;;11.00;99.90;;;;;;5056214;28;20053;-62
2023/06/02 00:30:56;;;;;;;21.35;3.42;;;11.00;99.90;;;;;;5057320;28;20102;-62
2023/06/02 00:33:23;;;;;;;9.85;3.20;;;11.00;99.90;;;;;;5056241;28;20049;-62
2023/06/02 00:35:50;;;;;;;10.85;2.80;;;10.90;99.90;;;;;;5073549;28;20060;-62
2023/06/02 00:38:17;;;;;;;10.80;2.95;;;10.90;99.90;;;;;;5056825;28;20061;-62
2023/06/02 00:40:44;;;;;;;13.38;3.35;;;10.90;99.90;;;;;;5074923;28;20045;-62
2023/06/02 00:43:11;;;;;;;9.07;3.28;;;10.90;99.90;;;;;;5074268;28;20400;-62
2023/06/02 00:45:39;;;;;;;16.65;3.33;;;11.00;99.90;;;;;;5074796;28;20055;-62
2023/06/02 00:48:07;;;;;;;10.63;3.17;;;11.00;99.90;;;;;;5074681;28;20082;-62
2023/06/02 00:50:34;;;;;;;13.55;3.70;;;11.00;99.90;;;;;;5056122;28;20065;-62
2023/06/02 00:53:03;;;;;;;11.70;3.28;;;11.00;99.90;;;;;;5056585;28;20059;-62
2023/06/02 00:55:31;;;;;;;14.30;3.20;;;11.00;99.90;;;;;;5056660;28;20556;-63
2023/06/02 00:58:03;;;;;;;17.10;3.47;;;11.00;99.90;;;;;;5055887;28;20055;-62
2023/06/02 01:00:33;;;;;;;16.13;3.30;;;10.90;99.90;;;;;;5072823;28;20496;-62
2023/06/02 01:03:02;;;;;;;8.27;2.03;;;10.90;99.90;;;;;;5071769;28;20495;-62
2023/06/02 01:05:30;;;;;;;15.10;3.20;;;11.70;99.90;;;;;;5056042;28;20131;-61
2023/06/02 01:08:02;;;;;;;15.73;4.18;;;10.80;99.90;;;;;;5055869;28;20063;-63
2023/06/02 01:10:31;;;;;;;10.50;3.13;;;10.80;99.90;;;;;;5054276;28;20098;-62
2023/06/02 01:12:59;;;;;;;12.43;3.35;;;10.70;99.90;;;;;;5056009;28;20052;-62
2023/06/02 01:15:26;;;;;;;13.25;4.00;;;10.70;99.90;;;;;;5056452;28;20446;-63
2023/06/02 01:17:55;;;;;;;15.60;3.03;;;11.50;99.90;;;;;;5053578;28;20451;-62
2023/06/02 01:20:24;;;;;;;21.02;5.05;;;10.70;99.90;;;;;;5073913;28;20055;-62
2023/06/02 01:22:58;;;;;;;15.60;3.30;;;10.70;99.90;;;;;;5056006;28;20550;-63
2023/06/02 01:25:28;;;;;;;12.98;3.20;;;10.60;99.90;;;;;;5053823;28;20048;-63
2023/06/02 01:27:57;;;;;;;11.85;3.67;;;11.40;99.90;;;;;;5056050;28;20476;-62
2023/06/02 01:30:26;;;;;;;12.43;2.88;;;10.60;99.90;;;;;;5056118;28;20056;-62
2023/06/02 01:33:02;;;;;;;19.70;3.33;;;10.70;99.90;;;;;;5073095;28;20091;-62
2023/06/02 01:35:32;;;;;;;18.60;4.07;;;10.70;99.90;;;;;;5072499;28;20044;-62
2023/06/02 01:38:01;;;;;;;15.75;3.33;;;10.70;99.90;;;;;;5071253;28;20048;-62
2023/06/02 01:40:31;;;;;;;18.83;3.50;;;10.60;99.90;;;;;;5073624;28;20040;-62
2023/06/02 01:43:00;;;;;;;14.98;4.45;;;10.60;99.90;;;;;;5073609;28;20052;-62
2023/06/02 01:45:29;;;;;;;14.90;4.03;;;11.10;99.90;;;;;;5052991;28;20045;-62
2023/06/02 01:48:04;;;;;;;10.68;3.35;;;10.60;99.90;;;;;;5055665;28;20048;-62
2023/06/02 01:50:33;;;;;;;12.68;3.15;;;10.60;99.90;;;;;;5073413;28;20044;-61
2023/06/02 01:53:00;;;;;;;16.88;3.47;;;10.60;99.90;;;;;;5054930;28;20063;-62
2023/06/02 01:55:27;;;;;;;13.35;3.05;;;10.60;99.90;;;;;;5055504;28;20052;-62
2023/06/02 01:57:55;;;;;;;15.85;3.35;;;10.60;99.90;;;;;;5073071;28;20492;-63
2023/06/02 02:00:23;;;;;;;15.38;3.80;;;10.60;99.90;;;;;;5072435;28;20095;-63
2023/06/02 02:02:51;;;;;;;15.93;3.78;;;10.60;99.90;;;;;;5053065;28;20098;-61
2023/06/02 02:05:18;;;;;;;12.93;2.88;;;10.70;99.90;;;;;;5073058;28;20045;-62
2023/06/02 02:07:47;;;;;;;17.52;3.33;;;11.30;99.90;;;;;;5072513;28;20051;-62
2023/06/02 02:10:15;;;;;;;14.13;4.05;;;10.70;99.90;;;;;;5054647;28;20067;-62
2023/06/02 02:12:42;;;;;;;18.67;3.40;;;10.80;99.90;;;;;;5073196;28;20407;-63
2023/06/02 02:15:11;;;;;;;16.88;3.95;;;11.00;99.90;;;;;;5054190;28;20044;-63
2023/06/02 02:17:45;;;;;;;18.38;3.75;;;10.60;99.90;;;;;;5054778;28;20056;-62
2023/06/02 02:20:13;;;;;;;12.90;3.90;;;10.60;99.90;;;;;;5072251;28;20076;-63
2023/06/02 02:22:41;;;;;;;14.10;3.10;;;10.50;99.90;;;;;;5072752;28;20052;-63
2023/06/02 02:25:08;;;;;;;14.07;3.60;;;10.50;99.90;;;;;;5054762;28;20556;-62
2023/06/02 02:27:36;;;;;;;15.85;3.97;;;10.50;99.90;;;;;;5054316;28;20086;-62
2023/06/02 02:30:04;;;;;;;13.00;3.33;;;10.60;99.90;;;;;;5054963;28;20548;-63
2023/06/02 02:32:34;;;;;;;20.70;3.58;;;10.60;99.90;;;;;;5072720;28;20127;-62
2023/06/02 02:35:01;;;;;;;15.75;3.05;;;10.50;99.90;;;;;;5053985;28;20052;-62
2023/06/02 02:37:28;;;;;;;13.35;3.15;;;10.50;99.90;;;;;;5052650;28;20048;-62
2023/06/02 02:39:55;;;;;;;15.73;3.80;;;10.50;99.90;;;;;;5072540;28;20048;-62
2023/06/02 02:42:22;;;;;;;9.90;2.92;;;10.50;99.90;;;;;;5054285;28;20084;-62
2023/06/02 02:44:49;;;;;;;14.13;3.20;;;10.50;99.90;;;;;;5054380;28;20056;-62
2023/06/02 02:47:16;;;;;;;13.90;3.25;;;10.90;99.90;;;;;;5072827;28;20113;-63
2023/06/02 02:49:45;;;;;;;13.65;3.03;;;10.50;99.90;;;;;;5071832;28;20044;-62
2023/06/02 02:52:12;;;;;;;18.15;4.43;;;10.60;99.90;;;;;;5072247;28;20055;-62
2023/06/02 02:54:39;;;;;;;16.30;3.55;;;10.60;99.90;;;;;;5052356;28;20056;-62
2023/06/02 02:57:08;;;;;;;15.95;3.63;;;10.60;99.90;;;;;;5071116;28;20044;-62
2023/06/02 02:59:35;;;;;;;15.43;3.17;;;10.60;99.90;;;;;;5072211;28;20119;-62
2023/06/02 03:02:03;;;;;;;12.93;3.50;;;10.70;99.90;;;;;;5054265;28;20044;-62
2023/06/02 03:04:32;;;;;;;16.48;4.13;;;11.40;99.90;;;;;;5053280;28;20562;-62
2023/06/02 03:07:01;;;;;;;14.02;3.67;;;10.70;99.90;;;;;;5070119;28;20566;-62
2023/06/02 03:09:28;;;;;;;15.15;3.20;;;10.70;99.90;;;;;;5071210;28;20056;-63
2023/06/02 03:11:57;;;;;;;14.65;3.85;;;10.70;99.90;;;;;;5053992;28;20045;-62
2023/06/02 03:14:26;;;;;;;9.50;3.15;;;10.80;99.90;;;;;;5053838;28;20052;-62
2023/06/02 03:16:54;;;;;;;13.93;4.50;;;11.60;99.90;;;;;;5071421;28;20076;-62
2023/06/02 03:19:23;;;;;;;14.25;3.53;;;10.80;99.90;;;;;;5054086;28;20056;-62
2023/06/02 03:21:51;;;;;;;9.48;3.00;;;10.80;99.90;;;;;;5054027;28;20063;-62
2023/06/02 03:24:20;;;;;;;10.43;2.90;;;10.90;99.90;;;;;;5053404;28;20056;-61
2023/06/02 03:26:51;;;;;;;12.50;3.35;;;10.90;99.90;;;;;;5053717;28;20102;-62
2023/06/02 03:29:18;;;;;;;;;;;10.90;99.90;;;;;;5052616;28;20056;-62
2023/06/02 03:31:45;;;;;;;18.73;4.18;;;11.20;99.90;;;;;;5053238;28;19936;-63
2023/06/02 03:34:12;;;;;;;13.60;4.10;;;10.90;99.90;;;;;;5053592;28;20063;-61
2023/06/02 03:36:39;;;;;;;10.65;3.22;;;11.00;99.90;;;;;;5053794;28;20048;-62
2023/06/02 03:39:09;;;;;;;14.18;3.42;;;11.00;99.90;;;;;;5071492;28;20045;-63
2023/06/02 03:41:38;;;;;;;11.32;3.83;;;11.00;99.90;;;;;;5053944;28;20071;-63
2023/06/02 03:44:05;;;;;;;18.08;4.22;;;11.00;99.90;;;;;;5071178;28;20044;-63
2023/06/02 03:46:33;;;;;;;12.98;3.40;;;11.00;99.90;;;;;;5052854;28;20079;-63
2023/06/02 03:49:00;;;;;;;14.68;3.40;;;11.10;99.90;;;;;;5047297;28;20052;-63
2023/06/02 03:51:27;;;;;;;10.88;3.60;;;12.00;99.90;;;;;;5047604;28;20044;-63
2023/06/02 03:53:54;;;;;;;20.67;3.95;;;10.90;99.90;;;;;;5051557;28;20056;-62
2023/06/02 03:56:20;;;;;;;17.30;4.53;;;11.30;99.90;;;;;;5052206;28;20048;-63
2023/06/02 03:58:49;;;;;;;15.15;3.35;;;11.40;99.90;;;;;;5068053;28;20052;-64
2023/06/02 04:01:17;;;;;;;11.18;3.22;;;12.00;99.90;;;;;;5070883;28;20051;-62
2023/06/02 04:03:44;;;;;;;14.23;3.90;;;12.30;99.90;;;;;;5049539;28;20412;-63
2023/06/02 04:06:11;;;;;;;13.77;4.10;;;11.50;99.90;;;;;;5051977;28;20051;-62
2023/06/02 04:08:38;;;;;;;13.52;3.60;;;11.60;99.90;;;;;;5070206;28;20060;-63
2023/06/02 04:11:05;;;;;;;11.45;2.78;;;11.60;99.90;;;;;;5055022;28;20044;-61
2023/06/02 04:13:33;;;;;;;13.43;4.05;;;11.60;99.90;;;;;;5072634;28;20044;-63
2023/06/02 04:16:01;;;;;;;19.17;4.70;;;11.70;99.90;;;;;;5074301;28;20049;-63
2023/06/02 04:18:28;;;;;;;14.05;3.70;;;11.70;99.90;;;;;;5054958;28;20056;-63
2023/06/02 04:20:56;;;;;;;12.52;3.78;;;11.80;99.90;;;;;;5070514;28;20056;-63
2023/06/02 04:23:22;;;;;;;13.57;3.75;;;11.80;99.90;;;;;;5054443;28;20052;-62
2023/06/02 04:25:50;;;;;;;16.33;3.78;;;11.80;99.90;;;;;;5053891;28;20099;-62
2023/06/02 04:28:19;;;;;;;31.65;4.10;;;11.90;99.90;;;;;;5069893;28;20056;-63
2023/06/02 04:30:48;;;;;;;17.25;4.30;;;11.80;99.90;;;;;;5071563;28;20067;-62
2023/06/02 04:33:16;;;;;;;15.68;3.85;;;11.90;99.90;;;;;;5055808;28;20053;-63
2023/06/02 04:35:43;;;;;;;11.77;3.80;;;11.90;99.90;;;;;;5051838;28;20041;-62
2023/06/02 04:38:11;;;;;;;14.35;5.03;;;11.90;99.90;;;;;;5073565;28;20049;-63
2023/06/02 04:40:39;;;;;;;12.63;3.90;;;12.00;99.90;;;;;;5051271;28;20072;-62
2023/06/02 04:43:06;;;;;;;19.67;4.47;;;12.00;99.90;;;;;;5069209;28;20055;-63
2023/06/02 04:45:33;;;;;;;11.05;3.72;;;12.00;99.90;;;;;;5053788;28;20098;-63
2023/06/02 04:48:01;;;;;;;11.10;3.67;;;12.00;99.90;;;;;;5055166;28;20475;-62
2023/06/02 04:50:29;;;;;;;13.45;3.17;;;12.50;99.90;;;;;;5052739;28;20122;-62
2023/06/02 04:52:56;;;;;;;17.40;4.75;;;12.00;99.90;;;;;;5055441;28;20052;-63
2023/06/02 04:55:23;;;;;;;13.93;3.50;;;12.00;99.90;;;;;;5053650;28;20049;-63
2023/06/02 04:57:50;;;;;;;18.90;4.55;;;12.00;99.90;;;;;;5054700;28;20056;-63
2023/06/02 05:00:18;;;;;;;19.92;4.47;;;12.00;99.90;;;;;;5071995;28;20057;-63
2023/06/02 05:02:45;;;;;;;19.77;4.63;;;12.00;99.90;;;;;;5049716;28;20106;-63
2023/06/02 05:05:13;;;;;;;13.15;3.72;;;12.10;99.90;;;;;;5070212;28;20091;-63
2023/06/02 05:07:41;;;;;;;14.43;5.15;;;12.10;99.90;;;;;;5053648;28;20056;-63
2023/06/02 05:10:09;;;;;;;17.30;4.35;;;12.10;99.90;;;;;;5052391;28;20053;-62
2023/06/02 05:12:41;;;;;;;14.75;4.18;;;12.20;99.90;;;;;;5071655;28;20055;-63
2023/06/02 05:15:09;;;;;;;20.90;4.20;;;12.20;99.90;;;;;;5072683;28;20132;-63
2023/06/02 05:17:36;;;;;;;21.90;5.22;;;12.30;99.90;;;;;;5051965;28;20110;-62
2023/06/02 05:20:03;;;;;;;14.05;3.50;;;12.30;99.90;;;;;;5072526;28;20052;-63
2023/06/02 05:22:31;;;;;;;14.98;4.82;;;12.30;99.90;;;;;;5049762;28;20530;-63
2023/06/02 05:25:00;;;;;;;21.60;5.10;;;12.50;99.90;;;;;;5053920;28;20072;-64
2023/06/02 05:27:27;;;;;;;17.15;3.65;;;12.40;99.90;;;;;;5068405;28;20040;-62
2023/06/02 05:29:53;;;;;;;19.65;4.55;;;12.50;99.90;;;;;;5053712;28;20051;-63
2023/06/02 05:32:24;;;;;;;13.43;5.07;;;12.50;99.90;;;;;;5069844;28;20515;-62
2023/06/02 05:34:51;;;;;;;17.15;5.10;;;12.60;99.90;;;;;;5072348;28;20498;-63
2023/06/02 05:37:18;;;;;;;18.40;5.57;;;12.60;99.90;;;;;;5068210;28;20059;-63
2023/06/02 05:39:45;;;;;;;18.27;4.28;;;12.60;99.90;;;;;;5052845;28;20052;-62
2023/06/02 05:42:13;;;;;;;17.25;5.28;;;12.70;99.90;;;;;;5053236;28;20053;-63
2023/06/02 05:44:40;;;;;;;18.13;4.90;;;12.80;99.90;;;;;;5050430;28;20048;-63
2023/06/02 05:47:07;;;;;;;16.48;4.72;;;12.90;99.90;;;;;;5051484;28;20194;-62
2023/06/02 05:49:34;;;;;;;19.08;5.55;;;13.00;99.90;;;;;;5051193;28;20052;-62
2023/06/02 05:52:02;;;;;;;18.67;5.47;;;13.60;99.90;;;;;;5053095;28;20060;-63
2023/06/02 05:54:28;;;;;;;21.65;5.20;;;13.30;99.90;;;;;;5052666;28;20071;-62
2023/06/02 05:56:55;;;;;;;16.52;4.78;;;13.60;99.90;;;;;;5054129;28;20048;-62
2023/06/02 05:59:24;;;;;;;21.52;5.53;;;13.50;99.90;;;;;;5052523;28;20053;-63
2023/06/02 06:01:51;;;;;;;23.73;5.85;;;13.50;99.90;;;;;;5069601;28;20051;-63
2023/06/02 06:04:18;;;;;;;19.25;5.50;;;14.10;99.90;;;;;;5053501;28;20393;-63
2023/06/02 06:06:45;;;;;;;22.88;4.90;;;13.60;99.90;;;;;;5051737;28;20101;-63
2023/06/02 06:09:12;;;;;;;23.83;5.63;;;13.70;99.90;;;;;;5050263;28;20063;-63
2023/06/02 06:11:39;;;;;;;18.88;5.53;;;13.70;99.90;;;;;;5070261;28;20059;-63
2023/06/02 06:14:07;;;;;;;20.83;5.97;;;13.80;99.90;;;;;;5052128;28;20102;-63
2023/06/02 06:16:37;;;;;;;21.17;5.15;;;13.80;99.90;;;;;;5051292;28;20081;-63
2023/06/02 06:19:04;;;;;;;19.20;5.15;;;13.90;99.90;;;;;;5070770;28;20067;-64
2023/06/02 06:21:31;;;;;;;23.50;5.88;;;14.00;99.90;;;;;;5053481;28;20063;-64
2023/06/02 06:23:58;;;;;;;20.58;5.15;;;14.10;99.90;;;;;;5068877;28;20570;-64
2023/06/02 06:26:25;;;;;;;18.77;5.03;;;14.10;99.90;;;;;;5069196;28;20052;-64
2023/06/02 06:28:52;;;;;;;13.98;5.63;;;14.30;99.90;;;;;;5052514;28;20048;-64
2023/06/02 06:31:19;;;;;;;26.55;4.90;;;14.40;99.90;;;;;;5052698;28;20060;-64
2023/06/02 06:33:47;;;;;;;19.00;4.90;;;14.50;99.90;;;;;;5049622;28;20055;-64
2023/06/02 06:36:14;;;;;;;18.65;4.63;;;14.60;99.90;;;;;;5052287;28;20392;-64
2023/06/02 06:38:42;;;;;;;14.93;5.15;;;14.70;99.90;;;;;;5071355;28;20052;-64
2023/06/02 06:41:09;;;;;;;14.77;5.15;;;15.00;99.90;;;;;;5050038;28;20065;-63
2023/06/02 06:43:36;;;;;;;23.27;5.38;;;15.20;99.90;;;;;;5052051;28;20128;-63
2023/06/02 06:46:03;;;;;;;25.40;5.22;;;15.50;99.90;;;;;;5069405;28;20107;-63
2023/06/02 06:48:30;;;;;;;19.35;5.03;;;15.80;99.90;;;;;;5065166;28;20052;-63
2023/06/02 06:50:58;;;;;;;18.75;5.05;;;16.00;99.90;;;;;;5052418;28;20053;-62
2023/06/02 06:53:25;;;;;;;15.05;4.88;;;16.20;99.90;;;;;;5069524;28;20119;-63
2023/06/02 06:55:52;;;;;;;14.70;4.20;;;16.20;99.90;;;;;;5069542;28;20500;-62
2023/06/02 06:58:19;;;;;;;21.88;4.50;;;16.40;99.90;;;;;;5052973;28;20094;-62
2023/06/02 07:00:45;;;;;;;14.85;5.53;;;16.60;99.90;;;;;;5052127;28;20052;-63
2023/06/02 07:03:12;;;;;;;15.85;4.53;;;16.60;99.90;;;;;;5052981;28;20515;-63
2023/06/02 07:05:39;;;;;;;14.13;4.65;;;16.60;99.90;;;;;;5050386;28;20056;-63
2023/06/02 07:08:08;;;;;;;21.65;5.20;;;16.60;99.90;;;;;;5071099;28;20105;-62
2023/06/02 07:10:34;;;;;;;23.63;6.05;;;16.70;99.90;;;;;;5070015;28;20056;-62
2023/06/02 07:13:02;;;;;;;12.82;4.50;;;16.80;99.90;;;;;;5071739;28;20041;-64
2023/06/02 07:15:29;;;;;;;16.30;4.25;;;16.90;99.90;;;;;;5052246;28;20114;-63
2023/06/02 07:17:55;;;;;;;24.13;4.40;;;17.20;99.90;;;;;;5070769;28;20047;-63
2023/06/02 07:20:22;;;;;;;15.73;4.32;;;17.50;99.90;;;;;;5068078;28;20059;-63
2023/06/02 07:22:49;;;;;;;16.98;3.38;;;17.70;99.90;;;;;;5052352;28;20060;-64
2023/06/02 07:25:18;;;;;;;17.90;4.63;;;18.20;99.90;;;;;;5069969;28;20075;-62
2023/06/02 07:27:45;;;;;;;12.77;3.95;;;18.50;99.90;;;;;;5053487;28;20044;-63
2023/06/02 07:30:12;;;;;;;13.85;3.80;;;19.20;99.90;;;;;;5047754;28;20097;-64
2023/06/02 07:32:39;;;;;;;15.98;4.82;;;19.90;99.90;;;;;;5051820;28;20056;-64
2023/06/02 07:35:07;;;;;;;10.45;2.92;;;20.40;99.90;;;;;;5051850;28;20063;-63
2023/06/02 07:37:34;;;;;;;11.13;3.33;;;20.70;99.90;;;;;;5052589;28;20056;-63
2023/06/02 07:40:01;;;;;;;14.95;3.08;;;20.60;99.90;;;;;;5052567;28;20048;-63
2023/06/02 07:42:29;;;;;;;10.20;2.70;;;20.60;99.90;;;;;;5053787;28;20062;-63
2023/06/02 07:44:56;;;;;;;13.20;2.95;;;20.20;99.90;;;;;;5056518;28;20060;-63
2023/06/02 07:47:23;;;;;;;7.85;2.70;;;19.90;99.90;;;;;;5052654;28;20168;-63
2023/06/02 07:49:50;;;;;;;8.27;2.65;;;20.20;99.90;;;;;;5057858;28;20052;-64
2023/06/02 07:52:17;;;;;;;7.95;2.50;;;20.80;99.90;;;;;;5056218;28;20064;-64
2023/06/02 07:54:44;;;;;;;15.52;3.35;;;21.10;99.90;;;;;;5057348;28;20056;-63
2023/06/02 07:57:11;;;;;;;7.18;1.92;;;21.50;99.90;;;;;;5055029;28;20507;-63
2023/06/02 07:59:39;;;;;;;5.88;1.77;;;21.80;99.90;;;;;;5056767;28;20053;-63
2023/06/02 08:02:07;;;;;;;7.45;2.30;;;22.30;99.90;;;;;;5057465;28;20059;-63
2023/06/02 08:04:34;;;;;;;8.95;1.80;;;22.80;99.90;;;;;;5057273;28;20060;-63
2023/06/02 08:07:03;;;;;;;6.35;1.92;;;23.00;98.50;;;;;;5074841;28;20044;-63
2023/06/02 08:09:30;;;;;;;4.53;1.70;;;23.40;98.10;;;;;;5074986;28;20111;-63
2023/06/02 08:11:57;;;;;;;9.75;2.25;;;23.50;97.80;;;;;;5056385;28;20044;-63
2023/06/02 08:14:24;;;;;;;7.15;1.55;;;23.90;97.30;;;;;;5057318;28;20462;-63
2023/06/02 08:16:55;;;;;;;5.05;1.58;;;24.10;96.90;;;;;;5074888;28;20447;-64
2023/06/02 08:19:23;;;;;;;6.22;1.90;;;24.30;95.60;;;;;;5056647;28;20473;-63
2023/06/02 08:21:50;;;;;;;7.65;2.00;;;24.30;95.00;;;;;;5072939;28;20044;-63
2023/06/02 08:24:17;;;;;;;7.35;1.50;;;24.60;94.90;;;;;;5056710;28;20048;-63
2023/06/02 08:26:48;;;;;;;8.98;2.00;;;24.40;94.00;;;;;;5054563;28;20408;-64
2023/06/02 08:29:15;;;;;;;7.38;1.85;;;24.40;94.00;;;;;;5057027;28;20051;-64
2023/06/02 08:31:42;;;;;;;6.68;2.03;;;24.40;93.20;;;;;;5056882;28;20056;-63
2023/06/02 08:34:11;;;;;;;6.03;1.40;;;24.40;92.70;;;;;;5051660;28;20075;-64
2023/06/02 08:36:38;;;;;;;5.93;1.50;;;24.60;90.40;;;;;;5047661;28;20489;-64
2023/06/02 08:39:06;;;;;;;6.25;1.63;;;24.80;91.40;;;;;;5072853;28;20063;-63
2023/06/02 08:41:38;;;;;;;3.55;1.55;;;24.90;91.10;;;;;;5073194;28;20135;-63
2023/06/02 08:44:05;;;;;;;6.68;1.38;;;25.30;90.90;;;;;;5070590;28;20106;-64
2023/06/02 08:46:32;;;;;;;5.63;1.23;;;25.50;90.50;;;;;;5054440;28;20492;-64
2023/06/02 08:49:00;;;;;;;7.70;1.27;;;25.60;88.60;;;;;;5053271;28;20049;-63
2023/06/02 08:51:36;;;;;;;7.15;1.15;;;25.60;87.40;;;;;;5055824;28;20480;-64
2023/06/02 08:54:05;;;;;;;5.07;1.52;;;25.80;86.50;;;;;;5053892;28;20118;-64
2023/06/02 08:56:32;;;;;;;4.63;1.60;;;25.80;86.80;;;;;;5072324;28;20591;-63
2023/06/02 08:58:59;;;;;;;5.93;1.30;;;25.80;87.40;;;;;;5054674;28;20044;-64
2023/06/02 09:01:27;;;;;;;5.28;1.55;;;25.90;87.40;;;;;;5053984;28;20048;-64
2023/06/02 09:03:53;;;;;;;6.90;1.27;;;26.00;87.10;;;;;;5071904;28;20511;-64
2023/06/02 09:06:22;;;;;;;5.32;1.60;;;26.00;86.80;;;;;;5055722;28;20051;-65
2023/06/02 09:08:58;;;;;;;5.78;1.45;;;26.00;86.60;;;;;;5052819;28;20120;-65
2023/06/02 09:11:26;;;;;;;7.10;1.58;;;26.20;85.30;;;;;;5053547;28;20086;-65
2023/06/02 09:13:54;;;;;;;6.18;1.40;;;26.20;86.40;;;;;;5054237;28;20515;-64
2023/06/02 09:16:22;;;;;;;2.97;1.00;;;26.30;85.20;;;;;;5070625;28;20072;-65
2023/06/02 09:18:56;;;;;;;4.22;1.10;;;26.30;84.60;;;;;;5054842;28;20049;-65
2023/06/02 09:21:28;;;;;;;4.70;1.00;;;26.40;81.50;;;;;;5069251;28;20059;-64
2023/06/02 09:23:57;;;;;;;4.15;1.10;;;26.50;80.70;;;;;;5072601;28;20075;-66
2023/06/02 09:26:26;;;;;;;4.93;1.25;;;26.50;82.50;;;;;;5069977;28;20056;-65
2023/06/02 09:29:08;;;;;;;5.53;1.50;;;26.70;82.30;;;;;;5053134;28;20044;-65
2023/06/02 09:31:50;;;;;;;5.03;1.55;;;26.80;81.50;;;;;;5052135;28;20503;-64
2023/06/02 09:34:18;;;;;;;7.07;1.83;;;26.80;82.30;;;;;;5073172;28;20067;-66
2023/06/02 09:36:48;;;;;;;7.43;1.48;;;26.80;82.80;;;;;;5053416;28;20389;-64
2023/06/02 09:39:32;;;;;;;4.30;1.48;;;26.90;82.10;;;;;;5052050;28;20048;-65
2023/06/02 09:41:59;;;;;;;3.42;1.55;;;26.70;79.30;;;;;;5071489;28;20048;-64
2023/06/02 09:44:27;;;;;;;7.93;1.33;;;26.90;79.10;;;;;;5066485;28;20049;-65
2023/06/02 09:46:54;;;;;;;4.20;1.27;;;27.10;78.20;;;;;;5073081;28;20044;-64
2023/06/02 09:49:21;;;;;;;3.28;1.00;;;27.10;79.10;;;;;;5069080;28;20045;-64
2023/06/02 09:51:48;;;;;;;5.22;1.35;;;27.30;79.20;;;;;;5054204;28;20052;-64
2023/06/02 09:54:16;;;;;;;4.65;1.20;;;27.10;77.20;;;;;;5053358;28;20508;-64
2023/06/02 09:56:43;;;;;;;5.97;1.13;;;27.20;76.90;;;;;;5073080;28;20048;-65
2023/06/02 09:59:10;;;;;;;3.90;1.25;;;27.30;76.80;;;;;;5052223;28;20049;-65
2023/06/02 10:01:38;;;;;;;3.25;0.88;;;27.10;75.10;;;;;;5073016;28;20044;-65
2023/06/02 10:04:07;;;;;;;4.20;1.08;;;27.30;75.90;;;;;;5070215;28;20114;-65
2023/06/02 10:06:47;;;;;;;3.35;0.90;;;27.40;74.20;;;;;;5054342;28;20059;-64
2023/06/02 10:09:33;;;;;;;8.32;1.48;;;27.20;71.20;;;;;;5069389;28;20515;-65
2023/06/02 10:12:24;;;;;;;5.10;1.15;;;27.10;70.80;;;;;;5069693;28;20045;-64
2023/06/02 10:15:07;;;;;;;2.90;1.00;;;27.30;71.10;;;;;;5060557;28;20496;-65
2023/06/02 10:17:44;;;;;;;5.35;0.95;;;27.30;68.50;;;;;;5051851;28;20049;-65
2023/06/02 10:20:22;;;;;;;3.67;0.93;;;27.50;69.10;;;;;;5052614;28;20041;-66
2023/06/02 10:23:11;;;;;;;6.68;1.30;;;27.20;67.50;;;;;;5070912;28;20041;-66
2023/06/02 10:25:57;;;;;;;3.17;0.93;;;27.50;67.90;;;;;;5070893;28;20044;-66
2023/06/02 10:28:24;;;;;;;4.43;1.17;;;27.50;67.20;;;;;;5053268;28;20076;-64
2023/06/02 10:31:06;;;;;;;4.78;1.23;;;27.70;69.90;;;;;;5070639;28;20130;-65
2023/06/02 10:33:46;;;;;;;4.10;1.23;;;27.90;67.90;;;;;;5053448;28;20083;-64
2023/06/02 10:36:17;;;;;;;2.80;0.82;;;27.70;66.70;;;;;;5050544;28;20056;-64
2023/06/02 10:38:45;;;;;;;2.30;0.65;;;27.80;67.10;;;;;;5039475;28;20129;-65
2023/06/02 10:41:16;;;;;;;2.70;0.88;;;27.80;65.70;;;;;;5020890;28;20570;-65
2023/06/02 10:44:20;;;;;;;3.88;1.23;;;27.80;65.80;;;;;;5072081;28;20044;-65
2023/06/02 10:46:47;;;;;;;3.70;1.40;;;27.90;67.20;;;;;;5051704;28;20044;-64
2023/06/02 10:49:47;;;;;;;4.40;1.25;;;27.70;68.40;;;;;;5052883;28;20052;-65
2023/06/02 10:52:14;;;;;;;4.47;1.45;;;27.70;68.00;;;;;;5070733;28;20059;-65
2023/06/02 10:54:41;;;;;;;4.10;1.13;;;27.80;70.40;;;;;;5052021;28;20156;-65
2023/06/02 10:57:12;;;;;;;8.80;1.33;;;27.80;70.90;;;;;;5053886;28;20106;-65
2023/06/02 10:59:39;;;;;;;3.60;1.23;;;27.90;71.40;;;;;;5051978;28;20064;-64
2023/06/02 11:02:06;;;;;;;7.40;1.33;;;27.90;72.60;;;;;;5053186;28;20049;-63
2023/06/02 11:04:34;;;;;;;6.13;1.83;;;27.90;73.20;;;;;;5052903;28;20060;-63
2023/06/02 11:07:17;;;;;;;3.70;1.35;;;28.00;73.30;;;;;;5053818;28;20044;-66
2023/06/02 11:09:45;;;;;;;6.78;1.50;;;27.90;73.70;;;;;;5051921;28;20072;-65
2023/06/02 11:12:15;;;;;;;6.97;1.60;;;27.80;75.60;;;;;;5071927;28;20056;-64
2023/06/02 11:15:13;;;;;;;5.40;1.85;;;28.10;75.60;;;;;;5069443;28;20224;-65
2023/06/02 11:17:41;;;;;;;11.37;2.00;;;28.20;74.80;;;;;;5052003;28;20080;-64
2023/06/02 11:20:08;;;;;;;4.78;1.48;;;27.90;75.10;;;;;;5053006;28;20496;-64
2023/06/02 11:22:36;;;;;;;8.35;2.03;;;28.00;75.70;;;;;;5069361;28;20059;-64
2023/06/02 11:25:03;;;;;;;7.60;1.75;;;28.10;75.80;;;;;;5053504;28;20114;-63
2023/06/02 11:27:40;;;;;;;7.10;1.80;;;28.30;76.30;;;;;;5070155;28;20040;-64
2023/06/02 11:30:14;;;;;;;7.90;2.00;;;28.60;76.60;;;;;;5051691;28;20095;-64
2023/06/02 11:32:41;;;;;;;3.72;1.80;;;28.30;76.50;;;;;;5049131;28;20132;-64
2023/06/02 11:35:09;;;;;;;5.05;1.75;;;28.60;77.10;;;;;;5070704;28;20098;-64
2023/06/02 11:37:38;;;;;;;7.40;1.55;;;28.70;76.80;;;;;;5069940;28;20048;-64
2023/06/02 11:40:09;;;;;;;8.10;1.80;;;28.70;76.10;;;;;;5070297;28;20052;-65
2023/06/02 11:42:39;;;;;;;4.80;1.75;;;29.00;75.40;;;;;;5052263;28;20141;-65
2023/06/02 11:45:18;;;;;;;6.03;1.80;;;28.40;74.30;;;;;;5051874;28;20046;-65
2023/06/02 11:47:46;;;;;;;6.45;1.95;;;28.20;75.10;;;;;;5051101;28;20074;-65
2023/06/02 11:50:16;;;;;;;8.77;2.00;;;28.40;76.00;;;;;;5067683;28;20132;-66
2023/06/02 11:52:43;;;;;;;6.07;2.10;;;27.90;75.60;;;;;;5052035;28;20523;-66
2023/06/02 11:55:11;;;;;;;10.10;2.60;;;27.70;76.20;;;;;;5049649;28;20056;-65
2023/06/02 11:57:39;;;;;;;6.05;1.60;;;27.90;77.10;;;;;;5050754;28;20059;-65
2023/06/02 12:00:12;;;;;;;5.30;1.77;;;27.50;76.90;;;;;;5051698;28;20130;-65
2023/06/02 12:02:40;;;;;;;3.85;1.90;;;26.90;78.00;;;;;;5053428;28;20412;-64
2023/06/02 12:05:11;;;;;;;5.72;2.20;;;26.30;78.50;;;;;;5051434;28;20045;-64
2023/06/02 12:07:39;;;;;;;6.47;2.00;;;26.80;79.60;;;;;;5053564;28;20131;-64
2023/06/02 12:10:07;;;;;;;9.05;2.30;;;26.60;79.60;;;;;;5050449;28;20052;-64
2023/06/02 12:12:34;;;;;;;7.30;2.30;;;26.40;79.00;;;;;;5070869;28;20044;-65
2023/06/02 12:15:14;;;;;;;6.68;2.28;;;26.00;79.80;;;;;;5069168;28;20048;-64
2023/06/02 12:17:44;;;;;;;6.88;2.55;;;25.60;80.20;;;;;;5053285;28;20048;-64
2023/06/02 12:20:11;;;;;;;8.35;2.25;;;25.10;81.70;;;;;;5050751;28;20480;-64
2023/06/02 12:22:52;;;;;;;9.20;2.30;;;25.70;82.80;;;;;;5052293;28;20045;-64
2023/06/02 12:25:21;;;;;;;7.97;2.40;;;26.20;82.60;;;;;;5052260;28;20135;-64
2023/06/02 12:27:48;;;;;;;8.15;2.33;;;27.10;81.80;;;;;;5068187;28;20095;-64
2023/06/02 12:30:17;;;;;;;5.05;1.90;;;27.10;81.30;;;;;;5052828;28;20051;-64
2023/06/02 12:32:44;;;;;;;4.43;2.22;;;27.10;81.50;;;;;;5055504;28;20059;-64
2023/06/02 12:35:11;;;;;;;8.10;2.45;;;26.50;81.30;;;;;;5056423;28;20056;-64
2023/06/02 12:37:40;;;;;;;6.45;2.28;;;26.40;81.90;;;;;;5052001;28;20260;-65
2023/06/02 12:40:09;;;;;;;6.85;2.20;;;26.50;81.90;;;;;;5053768;28;20037;-63
2023/06/02 12:42:36;;;;;;;7.60;2.15;;;26.00;82.00;;;;;;5053247;28;20048;-64
2023/06/02 12:45:03;;;;;;;6.00;2.53;;;25.20;83.00;;;;;;5074568;28;20052;-63
2023/06/02 12:47:33;;;;;;;4.43;2.17;;;24.70;84.10;;;;;;5053966;28;20155;-64
2023/06/02 12:50:02;;;;;;;4.95;2.72;;;24.40;85.20;;;;;;5056082;28;20051;-63